createdAt,value
2022-10-28T00:02:50.823Z,89.03
2022-10-28T00:08:22.118Z,88.68
2022-10-28T00:13:53.925Z,88.83
2022-10-28T00:19:30.003Z,88.35
2022-10-28T00:25:01.711Z,88.69
2022-10-28T00:30:33.541Z,89.08
2022-10-28T00:36:05.098Z,88.59
2022-10-28T00:41:37.023Z,88.86
2022-10-28T00:47:08.534Z,89.62
2022-10-28T00:52:40.261Z,89.12
2022-10-28T00:58:12.011Z,90.17
2022-10-28T01:03:43.665Z,89.31
2022-10-28T01:09:15.564Z,89.58
2022-10-28T01:14:47.277Z,89.49
2022-10-28T01:20:23.637Z,89.27
2022-10-28T01:25:55.116Z,89.43
2022-10-28T01:31:26.804Z,89.47
2022-10-28T01:36:58.698Z,89.34
2022-10-28T01:42:30.198Z,90.43
2022-10-28T01:48:02.337Z,90.06
2022-10-28T01:53:34.227Z,91.3
2022-10-28T01:59:05.375Z,91.56
2022-10-28T02:04:37.286Z,91.37
2022-10-28T02:10:08.826Z,91.54
2022-10-28T02:15:41.027Z,91.49
2022-10-28T02:21:16.671Z,92.08
2022-10-28T02:26:48.469Z,92.6
2022-10-28T02:32:20.434Z,91.97
2022-10-28T02:37:51.850Z,91.91
2022-10-28T02:43:23.622Z,91.87
2022-10-28T02:48:55.279Z,92.58
2022-10-28T02:54:27.122Z,92.26
2022-10-28T02:59:58.763Z,92.28
2022-10-28T03:05:31.102Z,91.77
2022-10-28T03:11:02.399Z,91.54
2022-10-28T03:16:33.727Z,91.43
2022-10-28T03:22:10.057Z,91.3
2022-10-28T03:27:41.867Z,91.36
2022-10-28T03:33:13.435Z,90.65
2022-10-28T03:38:45.318Z,90.11
2022-10-28T03:44:16.986Z,90.37
2022-10-28T03:49:48.663Z,90.81
2022-10-28T03:55:20.406Z,91.3
2022-10-28T04:00:52.283Z,92.64
2022-10-28T04:06:23.981Z,92.5
2022-10-28T04:11:55.732Z,92.04
2022-10-28T04:17:27.232Z,92.45
2022-10-28T04:23:04.443Z,92.19
2022-10-28T04:28:35.046Z,92.33
2022-10-28T04:34:06.827Z,92.92
2022-10-28T04:39:38.707Z,92.16
2022-10-28T04:45:10.514Z,92.0
2022-10-28T04:50:42.002Z,91.29
2022-10-28T04:56:13.715Z,90.98
2022-10-28T05:01:45.755Z,91.15
2022-10-28T05:07:22.689Z,90.73
2022-10-28T05:12:48.779Z,91.54
2022-10-28T05:18:20.654Z,91.45
2022-10-28T05:23:58.774Z,91.05
2022-10-28T05:29:33.623Z,91.14
2022-10-28T05:35:02.270Z,90.71
2022-10-28T05:40:33.854Z,90.87
2022-10-28T05:46:05.917Z,90.78
2022-10-28T05:51:37.275Z,90.11
2022-10-28T05:57:09.003Z,89.65
2022-10-28T06:02:40.791Z,89.39
2022-10-28T06:08:12.657Z,89.56
2022-10-28T06:13:42.748Z,89.39
2022-10-28T06:19:14.478Z,88.8
2022-10-28T06:24:50.607Z,87.57
2022-10-28T06:30:22.235Z,87.07
2022-10-28T06:35:53.955Z,86.47
2022-10-28T06:41:25.679Z,86.23
2022-10-28T06:46:58.932Z,85.84
2022-10-28T06:52:30.673Z,85.06
2022-10-28T06:58:02.458Z,84.83
2022-10-28T07:03:34.219Z,84.33
2022-10-28T07:09:05.856Z,84.15
2022-10-28T07:14:37.618Z,84.15
2022-10-28T07:20:09.981Z,85.12
2022-10-28T07:25:45.632Z,85.55
2022-10-28T07:31:17.269Z,85.87
2022-10-28T07:36:49.238Z,86.66
2022-10-28T07:42:20.684Z,87.54
2022-10-28T07:47:52.465Z,90.62
2022-10-28T07:53:28.758Z,90.75
2022-10-28T07:58:55.764Z,90.93
2022-10-28T08:04:27.487Z,90.36
2022-10-28T08:09:59.252Z,88.3
2022-10-28T08:15:31.027Z,88.6
2022-10-28T08:21:02.811Z,88.07
2022-10-28T08:26:38.816Z,86.17
2022-10-28T08:32:11.187Z,89.23
2022-10-28T08:37:42.362Z,87.51
2022-10-28T08:43:14.019Z,87.2
2022-10-28T08:48:45.805Z,88.43
2022-10-28T08:54:17.490Z,89.16
2022-10-28T08:59:49.198Z,85.47
2022-10-28T09:05:21.410Z,86.79
2022-10-28T09:10:52.630Z,89.39
2022-10-28T09:16:24.389Z,90.21
2022-10-28T09:21:56.091Z,89.03
2022-10-28T09:27:32.243Z,90.64
2022-10-28T09:33:03.967Z,90.12
2022-10-28T09:38:35.677Z,88.66
2022-10-28T09:44:07.470Z,88.22
2022-10-28T09:49:40.175Z,89.05
2022-10-28T09:55:10.960Z,87.46
2022-10-28T10:00:42.651Z,86.25
2022-10-28T10:06:14.303Z,87.01
2022-10-28T10:11:46.165Z,84.68
2022-10-28T10:17:17.832Z,85.43
2022-10-28T10:22:49.608Z,87.54
2022-10-28T10:28:27.661Z,88.69
2022-10-28T10:33:59.547Z,90.35
2022-10-28T10:39:31.295Z,85.71
2022-10-28T10:45:03.004Z,85.25
2022-10-28T10:50:34.650Z,85.26
2022-10-28T10:56:06.380Z,84.92
2022-10-28T11:01:38.597Z,88.5
2022-10-28T11:07:10.200Z,88.41
2022-10-28T11:12:41.731Z,89.47
2022-10-28T11:18:13.440Z,86.96
2022-10-28T11:23:45.948Z,86.75
2022-10-28T11:29:21.376Z,86.54
2022-10-28T11:34:53.117Z,87.54
2022-10-28T11:40:24.873Z,89.72
2022-10-28T11:45:56.608Z,88.87
2022-10-28T11:51:28.318Z,90.54
2022-10-28T11:57:00.625Z,90.57
2022-10-28T12:02:31.900Z,91.29
2022-10-28T12:08:03.650Z,92.54
2022-10-28T12:13:35.318Z,88.4
2022-10-28T12:19:07.080Z,83.35
2022-10-28T12:24:38.946Z,82.92
2022-10-28T12:30:14.980Z,84.06
2022-10-28T12:35:46.752Z,83.6
2022-10-28T12:41:18.466Z,80.53
2022-10-28T12:52:21.957Z,77.48
2022-10-28T12:57:54.116Z,77.26
2022-10-28T13:03:25.477Z,77.5
2022-10-28T13:14:28.748Z,77.15
2022-10-28T13:20:00.510Z,76.03
2022-10-28T13:25:32.217Z,76.61
2022-10-28T13:31:08.472Z,76.82
2022-10-28T13:36:40.139Z,76.46
2022-10-28T13:42:11.833Z,75.83
2022-10-28T13:47:43.554Z,76.28
2022-10-28T13:53:15.485Z,76.76
2022-10-28T13:58:46.963Z,76.33
2022-10-28T14:04:18.654Z,78.31
2022-10-28T14:09:50.378Z,78.92
2022-10-28T14:15:22.157Z,80.02
2022-10-28T14:20:53.826Z,80.83
2022-10-28T14:26:25.842Z,82.85
2022-10-28T14:32:01.780Z,84.0
2022-10-28T14:37:33.612Z,84.47
2022-10-28T14:43:05.173Z,84.41
2022-10-28T14:48:36.807Z,85.03
2022-10-28T14:54:08.657Z,85.02
2022-10-28T14:59:40.388Z,85.0
2022-10-28T15:05:11.979Z,85.99
2022-10-28T15:10:45.746Z,86.27
2022-10-28T15:16:15.472Z,86.0
2022-10-28T15:21:47.272Z,86.82
2022-10-28T15:27:19.342Z,85.08
2022-10-28T15:32:55.086Z,84.83
2022-10-28T15:38:26.754Z,85.21
2022-10-28T15:43:58.447Z,84.02
2022-10-28T15:49:30.835Z,84.54
2022-10-28T15:55:02.062Z,83.98
2022-10-28T16:00:33.589Z,83.41
2022-10-28T16:06:05.290Z,83.35
2022-10-28T16:11:37.537Z,83.73
2022-10-28T16:17:08.851Z,83.73
2022-10-28T16:22:40.866Z,83.64
2022-10-28T16:28:12.215Z,82.76
2022-10-28T16:33:48.602Z,81.54
2022-10-28T16:39:20.319Z,80.01
2022-10-28T16:44:51.929Z,78.56
2022-10-28T16:50:23.558Z,77.8
2022-10-28T16:55:55.437Z,77.43
2022-10-28T17:01:27.218Z,77.5
2022-10-28T17:06:58.803Z,79.5
2022-10-28T17:12:30.424Z,79.54
2022-10-28T17:18:02.207Z,80.61
2022-10-28T17:23:34.425Z,81.23
2022-10-28T17:29:05.644Z,81.51
2022-10-28T17:34:41.812Z,80.76
2022-10-28T17:40:13.416Z,80.83
2022-10-28T17:45:45.244Z,81.32
2022-10-28T17:51:17.557Z,81.83
2022-10-28T17:56:48.624Z,83.0
2022-10-28T18:02:20.679Z,84.31
2022-10-28T18:07:52.731Z,83.84
2022-10-28T18:13:23.866Z,82.81
2022-10-28T18:18:55.589Z,82.65
2022-10-28T18:24:27.342Z,82.11
2022-10-28T18:29:59.094Z,82.36
2022-10-28T18:35:35.281Z,82.59
2022-10-28T18:41:06.887Z,81.62
2022-10-28T18:46:38.545Z,80.41
2022-10-28T18:52:10.364Z,80.49
2022-10-28T18:57:42.070Z,80.75
2022-10-28T19:03:13.849Z,80.92
2022-10-28T19:08:46.294Z,81.58
2022-10-28T19:14:17.205Z,81.02
2022-10-28T19:19:49.104Z,81.2
2022-10-28T19:25:20.630Z,81.26
2022-10-28T19:30:52.345Z,82.77
2022-10-28T19:36:28.520Z,83.16
2022-10-28T19:42:00.341Z,83.83
2022-10-28T19:47:32.146Z,84.13
2022-10-28T19:53:03.771Z,84.42
2022-10-28T19:58:35.383Z,84.52
2022-10-28T20:04:07.331Z,85.52
2022-10-28T20:09:38.862Z,86.21
2022-10-28T20:15:10.656Z,86.2
2022-10-28T20:20:42.454Z,86.14
2022-10-28T20:26:14.190Z,86.26
2022-10-28T20:31:45.766Z,86.76
2022-10-28T20:37:22.131Z,86.31
2022-10-28T20:42:54.288Z,86.05
2022-10-28T20:48:25.328Z,85.46
2022-10-28T20:53:57.044Z,85.7
2022-10-28T20:59:29.583Z,85.65
2022-10-28T21:05:00.515Z,85.44
2022-10-28T21:10:32.241Z,85.14
2022-10-28T21:16:03.913Z,85.97
2022-10-28T21:21:35.591Z,87.21
2022-10-28T21:27:07.427Z,86.75
2022-10-28T21:32:39.111Z,85.59
2022-10-28T21:38:15.181Z,86.27
2022-10-28T21:43:46.977Z,86.57
2022-10-28T21:49:18.651Z,88.31
2022-10-28T21:54:50.366Z,87.69
2022-10-28T22:00:22.027Z,87.66
2022-10-28T22:05:53.874Z,87.47
2022-10-28T22:11:25.579Z,87.35
2022-10-28T22:16:58.335Z,88.16
2022-10-28T22:22:29.053Z,88.83
2022-10-28T22:28:00.746Z,88.79
2022-10-28T22:33:32.620Z,88.21
2022-10-28T22:39:09.487Z,89.71
2022-10-28T22:44:40.402Z,88.55
2022-10-28T22:50:12.093Z,87.41
2022-10-28T22:55:43.781Z,86.26
2022-10-28T23:01:15.937Z,84.8
2022-10-28T23:06:47.209Z,84.39
2022-10-28T23:12:19.016Z,85.14
2022-10-28T23:17:50.621Z,85.31
2022-10-28T23:23:23.004Z,84.6
2022-10-28T23:28:54.044Z,85.71
2022-10-28T23:34:25.740Z,86.07
2022-10-28T23:40:02.071Z,86.62
2022-10-28T23:45:34.388Z,86.38
2022-10-28T23:51:05.440Z,88.37
2022-10-28T23:56:37.293Z,87.73
